Victor, MT (59875)

6:42 AM MST on February 06, 2016 (GMT -0700)
Dutch Hill | | Change Station
CLOSE
Current Station
Personal Weather Station
Location: Hamilton, MT
Elevation: 3668 ft
Nearby Weather Stations

Elev 3668 ft 46.31 °N, 114.18 °W | Updated 1 minute ago

Mostly Cloudy
Mostly Cloudy
41.4 °F
Feels Like 41 °F
N
0.0
Wind Variable Wind from SSE
Gusts 0.0 mph

Today
High -- | Low -- °F
--% Chance of Precip.
Yesterday
High -- | Low -- °F
Precip. -- in
Pressure 30.13 in
Visibility 10.0 miles
Clouds Overcast 3600 ft
Windchill 41 °F
Dew Point 20 °F
Humidity 42%
Rainfall Not available.
Snow Depth Not available.
7:53 AM 5:48 PM
Waning Crescent, 5% visible
SPECI KMSO 061257Z 32017G25KT 10SM -RA OVC036 04/M01 A3013 RMK AO2 WSHFT 1242 PRESRR P0000 T00391011 $
Pressure 30.13 in
Visibility 10.0 miles
Clouds Overcast 3600 ft
Windchill 41 °F
Dew Point 20 °F
Humidity 42%
Rainfall Not available.
Snow Depth Not available.
7:53 AM 5:48 PM
Waning Crescent, 5% visible
SPECI KMSO 061257Z 32017G25KT 10SM -RA OVC036 04/M01 A3013 RMK AO2 WSHFT 1242 PRESRR P0000 T00391011 $

10-Day Weather Forecast

Almanac

Astronomy

Feb. 06, 2016 Rise Set
Actual Time
Civil Twilight
Nautical Twilight
Astronomical Twilight
Moon
Length of Visible Light
Length of Day
Tomorrow will be .
, % of the Moon is Illuminated

Today's Extremes

State Highs State Lows

Community

WunderPhotos

Upload Photos

1,890,971 photos uploaded!

WunderBlog® & News

Nearby

Air Quality

  Air Quality AQ Index Pollutant
Not available.

Snow Depth

Station Depth Elevation

Earthquake Activity

City Distance Mag. Time & Date
Minimum magnitude displayed is 2.5.

Coastal Water Temperatures

Place Temperature

Stations

Nearby Weather Stations

Station Location Temp. Windchill Dew Point Humidity Wind Precip. Elev Updated Type
                   

Watches & Warnings

There are currently no watches in effect.